Impacts TAF Board
For situational awareness. Not to be used for flight planning purposes.
IDs:

KMSY - New Orleans/Armstron, LA, US

Issued at 1120 UTC 19 Feb 2020
Updated at 1236 UTC 19 Feb 2020
Potential Impact None Slight Moderate High
Time<<20/13Z 20/14Z 20/15Z 20/16Z 20/17Z 20/18Z 20/19Z 20/20Z 20/21Z 20/22Z 20/23Z 21/00Z 21/01Z
Type PRVL PRVL PRVL PRVL PRVL
VIS 4 4 4 4 4
CIG 3 3 3 3 3
Cover OVC OVC OVC OVC OVC
FltCat LIFR LIFR LIFR LIFR LIFR
WX BR BR BR BR BR
WDir VRB VRB VRB VRB VRB
WSpd 4 4 4 4 4
WGst -- -- -- -- --
R01/19
XWnd VRB VRB VRB VRB VRB 0 0 0 0 0 0 0 0
HWnd VRB VRB VRB VRB VRB 0 0 0 0 0 0 0 0
R10/28
XWnd VRB VRB VRB VRB VRB 0 0 0 0 0 0 0 0
HWnd VRB VRB VRB VRB VRB 0 0 0 0 0 0 0 0
Raw TAF
KMSY 191120Z 1912/2018 35004KT 6SM BR VCSH BKN004 OVC009
  FM191300 VRB03KT 5SM BR VCSH OVC003
  FM191600 04005KT P6SM VCSH OVC010
  FM200600 VRB04KT 4SM BR OVC003


METAR Board
Radar Display
Forecast Discussion
For situational awareness. Not to be used for flight planning purposes.